Time;durP1;ratioP1;P1;durP2;ratioP2;P2;SDS_P1;SDS_P2;PMS_P1;PMS_P2;Temp;Humidity;BMP_temperature;BMP_pressure;BME280_temperature;BME280_humidity;BME280_pressure;Samples;Min_cycle;Max_cycle;Signal;HPM_P1;HPM_P2
2022/09/03 00:00:15;;;;;;;0.97;0.83;;;11.80;97.70;11.80;100825.00;;;;4953863;28;87888;-63
2022/09/03 00:03:12;;;;;;;0.60;0.60;;;11.80;98.00;11.70;100823.00;;;;4984078;28;90405;-63
2022/09/03 00:06:08;;;;;;;1.27;0.67;;;11.80;98.10;11.60;100830.00;;;;4972278;28;92784;-64
2022/09/03 00:08:58;;;;;;;2.07;0.50;;;11.70;98.50;11.60;100834.00;;;;4972481;28;87753;-66
2022/09/03 00:11:33;;;;;;;0.87;0.60;;;11.70;99.20;11.60;100827.00;;;;4956251;28;87355;-65
2022/09/03 00:14:12;;;;;;;0.70;0.50;;;11.60;99.80;11.60;100833.00;;;;4966941;28;88099;-63
2022/09/03 00:16:51;;;;;;;0.87;0.70;;;11.60;99.90;11.60;100825.00;;;;4968103;28;88222;-64
2022/09/03 00:19:21;;;;;;;0.90;0.67;;;11.60;99.90;11.60;100822.00;;;;4980541;28;102324;-63
2022/09/03 00:21:59;;;;;;;2.50;1.00;;;11.60;99.90;11.50;100810.00;;;;4986941;28;93060;-62
2022/09/03 00:24:30;;;;;;;0.87;0.63;;;11.60;99.90;11.50;100813.00;;;;4984278;28;88964;-63
2022/09/03 00:27:00;;;;;;;0.57;0.57;;;11.50;99.90;11.50;100817.00;;;;4970378;28;110783;-63
2022/09/03 00:29:39;;;;;;;0.50;0.40;;;11.50;99.90;11.40;100808.00;;;;4987999;28;96778;-64
2022/09/03 00:32:13;;;;;;;2.30;0.93;;;11.50;99.90;11.40;100813.00;;;;4962072;28;102338;-63
2022/09/03 00:34:46;;;;;;;0.70;0.70;;;11.50;99.90;11.40;100820.00;;;;4958823;28;108910;-64
2022/09/03 00:37:11;;;;;;;1.13;0.70;;;11.50;99.90;11.40;100814.00;;;;4965934;28;108953;-63
2022/09/03 00:39:37;;;;;;;0.77;0.47;;;11.70;99.90;11.30;100817.00;;;;4980807;28;87801;-65
2022/09/03 00:42:30;;;;;;;0.33;0.33;;;11.40;99.90;11.30;100808.00;;;;4978894;28;107630;-65
2022/09/03 00:45:22;;;;;;;0.37;0.37;;;11.40;99.90;11.30;100816.00;;;;4988332;28;88950;-64
2022/09/03 00:48:14;;;;;;;0.97;0.87;;;11.30;99.90;11.20;100801.00;;;;4965575;28;111315;-64
2022/09/03 00:51:16;;;;;;;0.40;0.40;;;11.30;99.90;11.20;100809.00;;;;4982802;28;102539;-64
2022/09/03 00:53:55;;;;;;;1.37;0.77;;;11.20;99.90;11.20;100808.00;;;;4984959;28;87909;-65
2022/09/03 00:56:47;;;;;;;0.57;0.57;;;11.20;99.90;11.10;100797.00;;;;4971137;28;112354;-63
2022/09/03 00:59:44;;;;;;;2.43;0.80;;;11.20;99.90;11.10;100802.00;;;;4971801;28;87984;-65
2022/09/03 01:02:27;;;;;;;0.83;0.83;;;11.20;99.90;11.10;100797.00;;;;4959577;28;98004;-63
2022/09/03 01:05:37;;;;;;;0.60;0.60;;;11.10;99.90;11.00;100793.00;;;;4983987;28;87097;-64
2022/09/03 01:08:11;;;;;;;0.70;0.70;;;11.10;99.90;11.00;100797.00;;;;4895145;28;87925;-64
2022/09/03 01:11:02;;;;;;;1.30;1.17;;;11.00;99.90;10.90;100787.00;;;;4972530;28;88824;-65
2022/09/03 01:13:49;;;;;;;0.63;0.63;;;11.00;99.90;10.90;100795.00;;;;4970396;28;101655;-65
2022/09/03 01:16:46;;;;;;;0.40;0.40;;;10.90;99.90;10.80;100784.00;;;;4984045;28;101001;-64
2022/09/03 01:19:54;;;;;;;0.73;0.70;;;10.90;99.90;10.80;100792.00;;;;4982649;28;110570;-65
2022/09/03 01:22:57;;;;;;;1.33;0.90;;;10.90;99.90;10.80;100788.00;;;;4990484;28;107493;-65
2022/09/03 01:26:15;;;;;;;0.73;0.60;;;10.90;99.90;10.80;100790.00;;;;4979464;28;87681;-65
2022/09/03 01:29:21;;;;;;;1.40;0.80;;;10.80;99.90;10.70;100781.00;;;;4985357;28;87783;-64
2022/09/03 01:32:28;;;;;;;0.63;0.63;;;10.80;99.90;10.70;100793.00;;;;4975689;28;88221;-65
2022/09/03 01:35:07;;;;;;;0.77;0.73;;;10.80;99.90;10.80;100798.00;;;;4922315;28;88367;-65
2022/09/03 01:37:46;;;;;;;1.93;0.73;;;10.80;99.90;10.80;100798.00;;;;4967372;28;99192;-64
2022/09/03 01:40:49;;;;;;;0.40;0.40;;;10.80;99.90;10.80;100792.00;;;;4982481;28;87796;-64
2022/09/03 01:43:50;;;;;;;1.00;0.93;;;10.80;99.90;10.70;100791.00;;;;4936658;28;89651;-64
2022/09/03 01:46:30;;;;;;;2.87;1.17;;;10.80;99.90;10.70;100779.00;;;;4961355;28;88226;-65
2022/09/03 01:49:27;;;;;;;0.80;0.80;;;10.70;99.90;10.70;100784.00;;;;4966113;28;99948;-65
2022/09/03 01:52:11;;;;;;;0.60;0.60;;;10.70;99.90;10.60;100783.00;;;;4991442;28;87928;-64
2022/09/03 01:55:12;;;;;;;4.43;1.00;;;10.70;99.90;10.60;100786.00;;;;4978358;28;88237;-63
2022/09/03 01:57:46;;;;;;;1.20;1.10;;;10.70;99.90;10.60;100789.00;;;;4982088;28;111815;-64
2022/09/03 02:00:19;;;;;;;1.00;0.90;;;10.60;99.90;10.60;100789.00;;;;4991064;28;87974;-63
2022/09/03 02:02:49;;;;;;;0.90;0.57;;;10.60;99.90;10.60;100794.00;;;;4982791;28;87078;-64
2022/09/03 02:05:26;;;;;;;0.77;0.70;;;10.60;99.90;10.50;100796.00;;;;4989166;28;88622;-64
2022/09/03 02:08:00;;;;;;;1.00;0.60;;;10.60;99.90;10.50;100801.00;;;;4975099;28;102179;-64
2022/09/03 02:10:52;;;;;;;1.20;0.97;;;10.60;99.90;10.50;100807.00;;;;4982556;28;88577;-64
2022/09/03 02:13:31;;;;;;;1.10;1.00;;;10.60;99.90;10.50;100801.00;;;;4976311;28;87868;-64
2022/09/03 02:16:03;;;;;;;0.40;0.40;;;10.60;99.90;10.50;100800.00;;;;4972083;28;108817;-65
2022/09/03 02:18:35;;;;;;;1.03;0.70;;;10.60;99.90;10.60;100800.00;;;;4965160;28;110265;-64
2022/09/03 02:21:02;;;;;;;1.50;0.97;;;10.60;99.90;10.60;100793.00;;;;4973592;28;87796;-64
2022/09/03 02:23:27;;;;;;;1.43;1.03;;;10.60;99.90;10.60;100789.00;;;;4962755;28;87885;-64
2022/09/03 02:26:02;;;;;;;1.23;0.80;;;10.60;99.90;10.60;100785.00;;;;4974604;28;117501;-63
2022/09/03 02:28:31;;;;;;;0.60;0.60;;;10.60;99.90;10.60;100789.00;;;;4988100;28;87571;-64
2022/09/03 02:30:57;;;;;;;0.70;0.50;;;10.60;99.90;10.60;100787.00;;;;4979430;28;104158;-63
2022/09/03 02:33:23;;;;;;;0.63;0.63;;;10.70;99.90;10.60;100783.00;;;;4977359;28;88034;-64
2022/09/03 02:35:48;;;;;;;0.80;0.60;;;10.60;99.90;10.60;100794.00;;;;4990712;28;89243;-64
2022/09/03 02:38:18;;;;;;;0.80;0.70;;;10.60;99.90;10.60;100790.00;;;;4981331;28;88650;-64
2022/09/03 02:40:44;;;;;;;0.90;0.70;;;10.60;99.90;10.50;100778.00;;;;4983193;28;87667;-65
2022/09/03 02:43:39;;;;;;;1.67;0.50;;;10.60;99.90;10.50;100775.00;;;;4991619;28;87972;-64
2022/09/03 02:46:13;;;;;;;0.67;0.60;;;10.50;99.90;10.40;100779.00;;;;4971287;28;88720;-63
2022/09/03 02:48:39;;;;;;;1.97;0.90;;;10.50;99.90;10.40;100771.00;;;;4983364;28;110592;-64
2022/09/03 02:51:04;;;;;;;1.80;0.90;;;10.40;99.90;10.40;100774.00;;;;4991159;28;112022;-64
2022/09/03 02:53:30;;;;;;;1.80;1.20;;;10.40;99.90;10.30;100779.00;;;;4977170;28;108425;-64
2022/09/03 02:56:00;;;;;;;0.77;0.73;;;10.40;99.90;10.30;100777.00;;;;4984372;28;117701;-64
2022/09/03 02:58:26;;;;;;;1.53;1.00;;;10.30;99.90;10.30;100773.00;;;;4990340;28;87816;-65
2022/09/03 03:00:52;;;;;;;0.57;0.50;;;10.50;99.90;10.20;100779.00;;;;4982476;28;88715;-64
2022/09/03 03:03:19;;;;;;;0.97;0.80;;;10.30;99.90;10.20;100780.00;;;;4984411;28;95800;-64
2022/09/03 03:05:51;;;;;;;0.50;0.50;;;10.30;99.90;10.10;100784.00;;;;4989386;28;88735;-64
2022/09/03 03:08:20;;;;;;;2.10;1.13;;;10.20;99.90;10.10;100788.00;;;;4976738;28;88186;-64
2022/09/03 03:10:48;;;;;;;3.63;1.07;;;10.20;99.90;10.10;100786.00;;;;4980505;28;87733;-63
2022/09/03 03:13:15;;;;;;;0.80;0.70;;;10.10;99.90;10.00;100781.00;;;;4991172;28;87809;-65
2022/09/03 03:15:41;;;;;;;3.57;0.90;;;10.10;99.90;10.00;100782.00;;;;4980382;28;87978;-63
2022/09/03 03:18:10;;;;;;;1.17;0.70;;;10.00;99.90;10.00;100789.00;;;;4983780;28;87867;-63
2022/09/03 03:20:37;;;;;;;0.70;0.57;;;10.00;99.90;9.90;100797.00;;;;4990800;28;87858;-63
2022/09/03 03:23:04;;;;;;;1.10;0.93;;;10.00;99.90;9.90;100794.00;;;;4980207;28;87832;-63
2022/09/03 03:25:33;;;;;;;0.63;0.63;;;9.90;99.90;9.90;100780.00;;;;4982731;28;89465;-63
2022/09/03 03:27:59;;;;;;;3.90;1.20;;;10.00;99.90;9.90;100788.00;;;;4985336;28;108554;-64
2022/09/03 03:30:25;;;;;;;0.87;0.73;;;9.90;99.90;9.90;100784.00;;;;4977084;28;87810;-65
2022/09/03 03:32:53;;;;;;;1.10;1.00;;;10.20;99.90;9.90;100788.00;;;;4984685;28;88003;-64
2022/09/03 03:35:19;;;;;;;1.60;0.90;;;9.90;99.90;9.90;100786.00;;;;4988621;28;111512;-64
2022/09/03 03:37:45;;;;;;;0.70;0.70;;;9.90;99.90;9.90;100778.00;;;;4978763;28;118388;-64
2022/09/03 03:40:12;;;;;;;1.30;0.97;;;9.90;99.90;9.90;100789.00;;;;4986446;28;110670;-64
2022/09/03 03:42:37;;;;;;;1.83;1.10;;;9.90;99.90;9.90;100785.00;;;;4991658;28;87038;-64
2022/09/03 03:45:05;;;;;;;0.97;0.90;;;9.90;99.90;9.80;100788.00;;;;4978249;28;116148;-65
2022/09/03 03:47:31;;;;;;;1.50;1.00;;;9.90;99.90;9.80;100788.00;;;;4963285;28;87877;-64
2022/09/03 03:49:58;;;;;;;1.03;0.93;;;9.90;99.90;9.80;100788.00;;;;4970370;28;101031;-64
2022/09/03 03:52:25;;;;;;;1.37;1.03;;;9.80;99.90;9.80;100787.00;;;;4979275;28;87776;-66
2022/09/03 03:54:52;;;;;;;2.00;1.30;;;9.80;99.90;9.80;100788.00;;;;4981331;28;88663;-65
2022/09/03 03:57:18;;;;;;;0.80;0.80;;;9.80;99.90;9.80;100783.00;;;;4990256;28;87955;-64
2022/09/03 03:59:45;;;;;;;1.17;1.07;;;9.80;99.90;9.80;100787.00;;;;4979409;28;87702;-65
2022/09/03 04:02:12;;;;;;;1.07;0.80;;;9.80;99.90;9.80;100786.00;;;;4983840;28;87897;-64
2022/09/03 04:04:38;;;;;;;1.27;1.03;;;9.80;99.90;9.70;100793.00;;;;4989998;28;88706;-63
2022/09/03 04:07:04;;;;;;;1.10;1.00;;;9.80;99.90;9.70;100783.00;;;;4980670;28;94412;-64
2022/09/03 04:09:29;;;;;;;5.57;1.33;;;9.80;99.90;9.70;100786.00;;;;4974406;28;87838;-63
2022/09/03 04:11:58;;;;;;;1.13;1.00;;;9.70;99.90;9.70;100784.00;;;;4973927;28;107968;-63
2022/09/03 04:14:26;;;;;;;0.90;0.80;;;9.80;99.90;9.70;100782.00;;;;4977450;28;89423;-64
2022/09/03 04:16:52;;;;;;;1.90;0.93;;;9.80;99.90;9.80;100770.00;;;;4983332;28;88903;-64
2022/09/03 04:19:18;;;;;;;3.17;0.90;;;9.80;99.90;9.70;100769.00;;;;4984937;28;101157;-64
2022/09/03 04:21:44;;;;;;;0.93;0.93;;;9.80;99.90;9.70;100773.00;;;;4980803;28;88370;-64
2022/09/03 04:24:10;;;;;;;0.80;0.80;;;9.80;99.90;9.70;100769.00;;;;4980432;28;88795;-64
2022/09/03 04:26:36;;;;;;;1.77;0.70;;;9.80;99.90;9.80;100779.00;;;;4988010;28;118185;-64
2022/09/03 04:29:07;;;;;;;0.90;0.90;;;9.80;99.90;9.80;100779.00;;;;4980651;28;87688;-63
2022/09/03 04:31:35;;;;;;;1.00;0.77;;;9.80;99.90;9.80;100771.00;;;;4983735;28;103352;-64
2022/09/03 04:34:02;;;;;;;1.30;0.87;;;9.80;99.90;9.70;100771.00;;;;4992231;28;88679;-64
2022/09/03 04:36:29;;;;;;;3.27;0.90;;;9.70;99.90;9.70;100779.00;;;;4984512;28;91597;-63
2022/09/03 04:38:58;;;;;;;1.40;1.20;;;9.80;99.90;9.70;100786.00;;;;4977253;28;88630;-63
2022/09/03 04:41:27;;;;;;;1.17;0.87;;;9.70;99.90;9.70;100780.00;;;;4990820;28;87822;-63
2022/09/03 04:43:55;;;;;;;2.03;1.00;;;9.80;99.90;9.70;100782.00;;;;4986273;28;102442;-64
2022/09/03 04:46:24;;;;;;;0.70;0.70;;;9.70;99.90;9.70;100781.00;;;;4985877;28;88457;-63
2022/09/03 04:48:52;;;;;;;1.00;0.90;;;9.70;99.90;9.70;100775.00;;;;4994170;28;87819;-64
2022/09/03 04:51:23;;;;;;;4.30;1.20;;;9.70;99.90;9.70;100780.00;;;;4983478;28;87651;-63
2022/09/03 04:54:00;;;;;;;3.33;1.00;;;9.70;99.90;9.70;100786.00;;;;4980939;28;89353;-63
2022/09/03 04:56:33;;;;;;;1.70;0.80;;;9.70;99.90;9.70;100782.00;;;;4993383;28;87292;-64
2022/09/03 04:59:02;;;;;;;0.87;0.87;;;9.70;99.90;9.70;100778.00;;;;4983031;28;88038;-65
2022/09/03 05:01:31;;;;;;;0.87;0.80;;;9.70;99.90;9.70;100783.00;;;;4986738;28;87703;-64
2022/09/03 05:03:58;;;;;;;0.73;0.73;;;9.70;99.90;9.80;100782.00;;;;4989165;28;89631;-64
2022/09/03 05:06:25;;;;;;;2.97;1.70;;;9.70;99.90;9.80;100783.00;;;;4982149;28;102414;-64
2022/09/03 05:08:53;;;;;;;0.63;0.63;;;9.80;99.90;9.80;100785.00;;;;4986815;28;92044;-65
2022/09/03 05:11:20;;;;;;;0.90;0.90;;;9.80;99.90;9.90;100778.00;;;;4993077;28;98857;-64
2022/09/03 05:13:56;;;;;;;2.43;1.23;;;9.90;99.90;10.00;100777.00;;;;4982831;28;88120;-64
2022/09/03 05:16:23;;;;;;;3.90;0.87;;;10.00;99.90;10.10;100784.00;;;;4984193;28;88675;-63
2022/09/03 05:18:52;;;;;;;1.13;0.80;;;10.10;99.90;10.20;100786.00;;;;4993209;28;88120;-64
2022/09/03 05:21:19;;;;;;;1.80;0.87;;;10.20;99.90;10.40;100790.00;;;;4983385;28;87013;-64
2022/09/03 05:23:47;;;;;;;1.80;1.07;;;10.30;99.90;10.50;100788.00;;;;4981695;28;90788;-63
2022/09/03 05:26:36;;;;;;;1.07;0.70;;;10.50;99.90;10.70;100797.00;;;;4985538;28;88178;-63
2022/09/03 05:29:06;;;;;;;1.60;1.43;;;10.60;99.90;10.90;100796.00;;;;4979200;28;88958;-64
2022/09/03 05:31:36;;;;;;;0.90;0.90;;;10.80;99.90;11.10;100793.00;;;;4983832;28;87815;-63
2022/09/03 05:34:04;;;;;;;2.63;0.80;;;11.00;99.90;11.30;100786.00;;;;4986324;28;88436;-64
2022/09/03 05:36:34;;;;;;;2.03;1.23;;;11.20;99.90;11.50;100788.00;;;;4982592;28;87976;-63
2022/09/03 05:39:00;;;;;;;1.80;0.77;;;11.30;99.90;11.70;100788.00;;;;4981264;28;87806;-63
2022/09/03 05:41:27;;;;;;;0.80;0.60;;;11.60;99.90;11.90;100788.00;;;;4982118;28;88157;-63
2022/09/03 05:43:55;;;;;;;0.70;0.70;;;11.70;99.90;12.10;100781.00;;;;4975007;28;88917;-63
2022/09/03 05:46:29;;;;;;;0.70;0.70;;;11.90;99.90;12.30;100780.00;;;;4977006;28;89291;-63
2022/09/03 05:48:54;;;;;;;0.67;0.67;;;12.10;99.90;12.50;100788.00;;;;4983382;28;88113;-63
2022/09/03 05:51:20;;;;;;;1.27;0.70;;;12.50;99.90;12.70;100783.00;;;;4977731;28;109557;-63
2022/09/03 05:53:47;;;;;;;1.30;0.80;;;12.50;99.90;12.90;100791.00;;;;4981363;28;109910;-63
2022/09/03 05:56:19;;;;;;;2.83;0.80;;;12.70;99.90;13.10;100790.00;;;;4988836;28;88764;-63
2022/09/03 05:58:49;;;;;;;1.27;1.00;;;12.90;99.90;13.30;100797.00;;;;4979473;28;87891;-64
2022/09/03 06:01:22;;;;;;;1.23;0.90;;;13.10;99.90;13.50;100796.00;;;;4982263;28;87872;-64
2022/09/03 06:03:58;;;;;;;1.27;0.93;;;13.30;99.90;13.80;100797.00;;;;4987245;28;88809;-63
2022/09/03 06:06:25;;;;;;;1.33;0.73;;;13.60;99.90;14.00;100796.00;;;;4977517;28;88376;-64
2022/09/03 06:08:57;;;;;;;1.70;0.90;;;13.80;99.90;14.20;100797.00;;;;4985279;28;87756;-63
2022/09/03 06:11:28;;;;;;;0.93;0.90;;;14.00;99.90;14.50;100794.00;;;;4987378;28;87080;-63
2022/09/03 06:13:55;;;;;;;3.53;1.00;;;14.20;99.90;14.70;100796.00;;;;4977435;28;88454;-64
2022/09/03 06:16:21;;;;;;;1.27;1.07;;;14.50;99.90;14.90;100798.00;;;;4986563;28;89616;-64
2022/09/03 06:18:48;;;;;;;0.70;0.50;;;14.70;99.90;15.10;100801.00;;;;4982427;28;89715;-63
2022/09/03 06:21:14;;;;;;;2.87;1.30;;;14.90;99.90;15.20;100802.00;;;;4978428;28;88019;-63
2022/09/03 06:23:41;;;;;;;1.53;1.17;;;15.00;99.90;15.40;100806.00;;;;4983065;28;117975;-65
2022/09/03 06:26:10;;;;;;;1.37;0.77;;;15.20;99.90;15.60;100801.00;;;;4982536;28;88561;-63
2022/09/03 06:28:40;;;;;;;0.60;0.55;;;15.30;99.90;15.70;100806.00;;;;4976221;28;92131;-65
2022/09/03 06:31:08;;;;;;;0.70;0.70;;;15.50;99.90;15.90;100802.00;;;;4980795;28;87865;-65
2022/09/03 06:33:36;;;;;;;0.82;0.80;;;15.60;99.90;15.90;100807.00;;;;4980478;28;109506;-64
2022/09/03 06:36:05;;;;;;;1.02;0.70;;;15.70;99.90;16.10;100812.00;;;;4976089;28;87709;-65
2022/09/03 06:38:34;;;;;;;1.00;0.77;;;15.90;99.90;16.30;100808.00;;;;4980508;28;102629;-65
2022/09/03 06:41:09;;;;;;;0.73;0.73;;;16.00;99.90;16.40;100806.00;;;;4979476;28;87867;-65
2022/09/03 06:43:38;;;;;;;0.57;0.57;;;16.30;99.90;16.60;100806.00;;;;4976090;28;89278;-65
2022/09/03 06:46:10;;;;;;;1.02;0.93;;;16.40;99.40;16.60;100813.00;;;;4982110;28;91244;-65
2022/09/03 06:48:37;;;;;;;1.40;1.00;;;16.40;98.90;16.60;100817.00;;;;4986870;28;103313;-65
2022/09/03 06:51:06;;;;;;;0.30;0.30;;;16.50;98.80;16.60;100815.00;;;;4979831;28;87845;-64
2022/09/03 06:53:36;;;;;;;0.93;0.88;;;16.50;98.10;16.60;100804.00;;;;4985276;28;87928;-64
2022/09/03 06:56:13;;;;;;;0.63;0.60;;;16.50;97.60;16.60;100807.00;;;;4973947;28;110879;-64
2022/09/03 06:58:47;;;;;;;1.52;0.90;;;16.50;97.70;16.70;100813.00;;;;4982988;28;99029;-64
2022/09/03 07:01:17;;;;;;;0.85;0.85;;;16.60;97.90;16.90;100819.00;;;;4994188;28;87256;-65
2022/09/03 07:03:47;;;;;;;0.93;0.85;;;16.70;97.60;17.10;100815.00;;;;4986820;28;88690;-65
2022/09/03 07:06:16;;;;;;;0.40;0.40;;;16.90;96.80;17.10;100817.00;;;;4982194;28;89191;-64
2022/09/03 07:08:42;;;;;;;0.73;0.73;;;17.00;95.30;17.20;100817.00;;;;4982346;28;103311;-65
2022/09/03 07:11:14;;;;;;;0.70;0.70;;;17.00;95.40;17.40;100812.00;;;;4988126;28;87700;-65
2022/09/03 07:13:46;;;;;;;2.00;0.88;;;17.10;95.00;17.40;100816.00;;;;4980868;28;88759;-65
2022/09/03 07:16:19;;;;;;;1.50;0.93;;;17.20;93.60;17.40;100809.00;;;;4976858;28;88665;-64
2022/09/03 07:18:45;;;;;;;0.70;0.63;;;17.30;93.70;17.60;100810.00;;;;4976147;28;92969;-63
2022/09/03 07:21:17;;;;;;;0.63;0.63;;;17.40;92.90;17.80;100812.00;;;;4978952;28;88553;-65
2022/09/03 07:23:44;;;;;;;1.85;0.98;;;17.50;92.00;17.90;100812.00;;;;4981161;28;110620;-64
2022/09/03 07:26:18;;;;;;;1.45;1.35;;;17.70;91.00;17.90;100804.00;;;;4980962;28;89253;-64
2022/09/03 07:28:44;;;;;;;0.93;0.82;;;17.70;91.50;18.10;100804.00;;;;4976421;28;87930;-64
2022/09/03 07:31:24;;;;;;;0.82;0.70;;;17.90;91.00;18.30;100802.00;;;;4976010;28;87953;-64
2022/09/03 07:33:56;;;;;;;5.22;1.40;;;18.00;91.20;18.50;100804.00;;;;4972918;28;88888;-64
2022/09/03 07:36:25;;;;;;;0.68;0.60;;;18.20;90.90;18.80;100800.00;;;;4972999;28;110143;-65
2022/09/03 07:38:56;;;;;;;1.10;1.00;;;18.50;89.90;19.00;100795.00;;;;4981433;28;87909;-63
2022/09/03 07:41:23;;;;;;;1.05;0.75;;;18.70;87.10;19.20;100800.00;;;;4988498;28;87830;-64
2022/09/03 07:43:49;;;;;;;4.35;0.88;;;18.90;87.50;19.50;100801.00;;;;4977398;28;89064;-65
2022/09/03 07:46:22;;;;;;;1.38;0.80;;;19.20;88.00;19.90;100800.00;;;;4958843;28;116337;-64
2022/09/03 07:49:01;;;;;;;0.70;0.70;;;19.50;86.00;20.20;100802.00;;;;4975634;28;88629;-64
2022/09/03 07:51:30;;;;;;;1.27;1.17;;;19.80;83.50;20.40;100793.00;;;;4976541;28;87334;-64
2022/09/03 07:53:58;;;;;;;5.80;0.88;;;20.10;82.80;20.70;100797.00;;;;4972804;28;88744;-65
2022/09/03 07:56:25;;;;;;;1.08;0.55;;;20.40;80.50;21.00;100798.00;;;;4972305;28;101181;-65
2022/09/03 07:58:54;;;;;;;0.75;0.68;;;20.70;77.70;21.20;100801.00;;;;4973293;28;89058;-65
2022/09/03 08:01:22;;;;;;;2.83;1.10;;;20.90;75.20;21.40;100794.00;;;;4971527;28;88031;-65
2022/09/03 08:03:51;;;;;;;0.70;0.70;;;21.10;72.50;21.60;100798.00;;;;4975504;28;89319;-65
2022/09/03 08:06:26;;;;;;;0.13;0.13;;;21.30;69.40;21.60;100798.00;;;;4266209;28;10001258;-64
2022/09/03 08:08:58;;;;;;;1.92;0.80;;;21.30;68.60;21.70;100792.00;;;;4906936;28;92284;-65
2022/09/03 08:11:24;;;;;;;0.50;0.50;;;21.40;68.00;21.90;100792.00;;;;4912781;28;87569;-65
2022/09/03 08:14:05;;;;;;;0.98;0.82;;;21.60;64.70;21.90;100798.00;;;;4918166;28;87739;-65
2022/09/03 08:16:48;;;;;;;1.50;0.65;;;21.60;63.30;21.90;100807.00;;;;4917755;28;87688;-65
2022/09/03 08:19:17;;;;;;;1.45;0.43;;;21.60;63.00;21.80;100797.00;;;;4917726;28;87646;-66
2022/09/03 08:21:43;;;;;;;0.73;0.60;;;21.60;63.20;22.00;100797.00;;;;4916559;28;87897;-64
2022/09/03 08:24:10;;;;;;;0.60;0.50;;;21.80;62.90;22.10;100792.00;;;;4914136;28;88937;-64
2022/09/03 08:26:41;;;;;;;0.52;0.52;;;21.90;60.00;22.10;100797.00;;;;4913814;28;88677;-64
2022/09/03 08:29:06;;;;;;;2.10;0.80;;;21.90;59.40;22.20;100789.00;;;;4914482;28;88538;-65
2022/09/03 08:31:35;;;;;;;1.13;0.65;;;21.90;59.40;22.30;100791.00;;;;4924339;28;87927;-64
2022/09/03 08:34:05;;;;;;;4.25;0.50;;;22.00;58.70;22.40;100791.00;;;;4923141;28;87913;-66
2022/09/03 08:36:34;;;;;;;0.70;0.52;;;22.10;58.00;22.40;100784.00;;;;4921329;28;88037;-64
2022/09/03 08:39:03;;;;;;;1.55;0.70;;;22.20;57.60;22.50;100791.00;;;;4920523;28;88648;-65
2022/09/03 08:41:54;;;;;;;5.05;0.65;;;22.20;56.50;22.50;100786.00;;;;4917019;28;87216;-65
2022/09/03 08:44:45;;;;;;;1.10;0.80;;;22.20;57.30;22.50;100784.00;;;;4915379;28;88132;-64
2022/09/03 08:47:35;;;;;;;1.80;0.82;;;22.20;56.90;22.70;100770.00;;;;4911046;28;87881;-65
2022/09/03 08:50:23;;;;;;;0.20;0.20;;;22.30;56.60;22.80;100776.00;;;;4914805;28;110396;-65
2022/09/03 08:52:56;;;;;;;0.82;0.70;;;22.50;56.20;23.00;100775.00;;;;4928948;28;87766;-65
2022/09/03 08:55:27;;;;;;;0.47;0.45;;;22.60;55.40;23.10;100781.00;;;;4910013;28;87988;-65
2022/09/03 08:58:17;;;;;;;0.95;0.77;;;22.70;54.90;23.30;100777.00;;;;4916119;28;87832;-65
2022/09/03 09:01:10;;;;;;;0.50;0.50;;;22.90;53.90;23.30;100770.00;;;;4912820;28;102715;-63
2022/09/03 09:04:21;;;;;;;1.80;0.70;;;22.90;52.70;23.20;100766.00;;;;4912276;28;87669;-66
2022/09/03 09:07:27;;;;;;;1.02;0.88;;;22.90;52.90;23.30;100767.00;;;;4891043;28;87911;-65
2022/09/03 09:10:11;;;;;;;0.82;0.82;;;22.90;53.30;23.40;100767.00;;;;4914749;28;87360;-66
2022/09/03 09:13:15;;;;;;;1.38;0.95;;;23.00;53.20;23.40;100768.00;;;;4931529;28;106916;-65
2022/09/03 09:15:56;;;;;;;0.60;0.43;;;23.10;52.60;23.40;100776.00;;;;4928304;28;88854;-66
2022/09/03 09:18:59;;;;;;;1.23;1.05;;;23.10;52.00;23.50;100775.00;;;;4916510;28;89203;-65
2022/09/03 09:21:38;;;;;;;1.08;0.75;;;23.10;52.70;23.70;100767.00;;;;4912708;28;107693;-66
2022/09/03 09:24:37;;;;;;;0.50;0.40;;;23.20;51.80;23.80;100770.00;;;;4928551;28;88053;-65
2022/09/03 09:27:05;;;;;;;2.38;1.05;;;23.30;51.90;24.00;100763.00;;;;4918749;28;87626;-66
2022/09/03 09:29:38;;;;;;;1.73;1.20;;;23.50;51.10;23.90;100763.00;;;;4916352;28;89046;-65
2022/09/03 09:32:09;;;;;;;2.25;0.68;;;23.50;50.70;23.70;100768.00;;;;4920725;28;88993;-65
2022/09/03 09:34:37;;;;;;;1.48;0.80;;;23.40;51.10;23.80;100771.00;;;;4932670;28;88878;-65
2022/09/03 09:37:14;;;;;;;0.60;0.60;;;23.50;51.50;23.80;100766.00;;;;4915928;28;87523;-65
2022/09/03 09:39:57;;;;;;;3.85;1.08;;;23.40;51.40;23.70;100769.00;;;;4922230;28;87919;-64
2022/09/03 09:42:23;;;;;;;0.60;0.60;;;23.40;51.00;23.80;100768.00;;;;4919757;28;88432;-66
2022/09/03 09:44:50;;;;;;;2.40;1.15;;;23.40;50.80;23.70;100765.00;;;;4918185;28;88983;-65
2022/09/03 09:47:36;;;;;;;2.17;0.95;;;23.30;50.60;23.60;100769.00;;;;4909509;28;87841;-65
2022/09/03 09:50:03;;;;;;;1.65;1.23;;;23.30;51.00;23.80;100759.00;;;;4914786;28;94258;-65
2022/09/03 09:52:30;;;;;;;2.08;1.27;;;23.30;51.30;24.00;100769.00;;;;4910116;28;89020;-65
2022/09/03 09:55:22;;;;;;;1.27;0.90;;;23.40;51.00;23.80;100774.00;;;;4905684;28;89003;-65
2022/09/03 09:57:52;;;;;;;2.47;0.90;;;23.50;50.60;23.70;100765.00;;;;4923036;28;87867;-65
2022/09/03 10:00:18;;;;;;;1.95;0.88;;;23.40;50.50;23.80;100762.00;;;;4914271;28;108400;-66
2022/09/03 10:02:53;;;;;;;1.83;1.02;;;23.40;50.90;23.80;100756.00;;;;4921697;28;108937;-65
2022/09/03 10:05:25;;;;;;;1.67;1.05;;;23.40;51.20;24.30;100764.00;;;;4912157;28;87987;-66
2022/09/03 10:08:00;;;;;;;1.70;1.35;;;23.60;51.70;24.70;100764.00;;;;4917841;28;103275;-65
2022/09/03 10:10:28;;;;;;;0.70;0.70;;;24.00;49.90;24.70;100755.00;;;;4915950;28;88970;-65
2022/09/03 10:13:12;;;;;;;1.27;0.88;;;24.20;49.30;24.80;100752.00;;;;4929415;28;117408;-65
2022/09/03 10:16:02;;;;;;;0.82;0.63;;;24.30;49.00;24.90;100757.00;;;;4908876;28;103116;-66
2022/09/03 10:18:44;;;;;;;0.80;0.80;;;24.30;48.60;24.90;100749.00;;;;4913642;28;87916;-64
2022/09/03 10:21:30;;;;;;;2.00;0.80;;;24.40;48.70;24.80;100744.00;;;;4916025;28;87735;-65
2022/09/03 10:24:14;;;;;;;0.90;0.70;;;24.40;48.70;24.80;100739.00;;;;4913465;28;88099;-66
2022/09/03 10:26:43;;;;;;;1.85;0.93;;;24.30;48.60;24.90;100737.00;;;;4909301;28;87897;-65
2022/09/03 10:29:09;;;;;;;1.85;1.10;;;24.40;48.60;25.10;100732.00;;;;4915135;28;87226;-66
2022/09/03 10:31:40;;;;;;;0.98;0.98;;;24.60;47.90;25.30;100725.00;;;;4938544;28;88857;-65
2022/09/03 10:34:37;;;;;;;2.25;1.30;;;24.80;47.90;25.50;100726.00;;;;4917862;28;107868;-65
2022/09/03 10:37:37;;;;;;;0.70;0.60;;;24.90;48.00;25.90;100718.00;;;;4909515;28;89058;-65
2022/09/03 10:40:19;;;;;;;0.95;0.82;;;25.20;47.80;26.10;100715.00;;;;4916211;28;87816;-64
2022/09/03 10:43:05;;;;;;;0.85;0.80;;;25.60;46.20;26.00;100725.00;;;;4927325;28;89196;-66
2022/09/03 10:46:14;;;;;;;1.75;1.13;;;25.60;46.10;26.00;100718.00;;;;4906332;28;108661;-64
2022/09/03 10:49:18;;;;;;;3.80;1.00;;;25.60;46.10;26.20;100718.00;;;;4866249;28;87764;-64
2022/09/03 10:52:02;;;;;;;2.08;0.93;;;25.70;45.50;26.60;100716.00;;;;4845449;28;96961;-67
2022/09/03 10:54:56;;;;;;;1.25;1.15;;;25.90;46.30;26.90;100695.00;;;;4904231;28;88087;-66
2022/09/03 10:57:49;;;;;;;2.50;0.90;;;26.20;45.70;27.20;100706.00;;;;4903933;28;87247;-70
2022/09/03 11:00:17;;;;;;;1.73;1.00;;;26.50;44.30;27.10;100709.00;;;;4904196;28;87845;-69
2022/09/03 11:02:57;;;;;;;2.67;0.90;;;26.60;43.70;26.90;100708.00;;;;4905351;28;87797;-70
2022/09/03 11:05:56;;;;;;;0.75;0.60;;;26.50;43.70;26.80;100708.00;;;;4925411;28;89043;-69
2022/09/03 11:08:35;;;;;;;1.63;0.88;;;26.40;43.80;27.10;100696.00;;;;4908582;28;90453;-69
2022/09/03 11:11:18;;;;;;;0.82;0.50;;;26.50;45.20;27.50;100704.00;;;;4911189;28;105971;-69
2022/09/03 11:13:58;;;;;;;1.17;0.77;;;26.80;44.80;27.80;100702.00;;;;4910925;28;87790;-70
2022/09/03 11:16:31;;;;;;;1.00;1.00;;;27.20;44.20;28.00;100694.00;;;;4887676;28;87960;-68
2022/09/03 11:19:05;;;;;;;0.95;0.90;;;27.30;43.60;28.20;100674.00;;;;4909746;28;109962;-68
2022/09/03 11:21:33;;;;;;;0.75;0.60;;;27.60;43.60;28.10;100692.00;;;;4906849;28;88279;-68